createdAt,value
2024-02-05T00:01:38.506Z,3.30
2024-02-05T00:04:26.323Z,5.32
2024-02-05T00:07:03.764Z,5.30
2024-02-05T00:09:32.501Z,4.13
2024-02-05T00:11:59.386Z,8.45
2024-02-05T00:14:26.204Z,4.15
2024-02-05T00:16:52.941Z,2.92
2024-02-05T00:19:19.916Z,3.10
2024-02-05T00:21:47.155Z,3.38
2024-02-05T00:24:14.108Z,2.70
2024-02-05T00:26:40.960Z,9.15
2024-02-05T00:29:10.646Z,5.22
2024-02-05T00:31:39.018Z,3.28
2024-02-05T00:34:07.202Z,2.30
2024-02-05T00:36:35.046Z,3.88
2024-02-05T00:39:03.667Z,5.30
2024-02-05T00:41:30.692Z,4.53
2024-02-05T00:43:57.873Z,3.42
2024-02-05T00:46:27.759Z,2.88
2024-02-05T00:48:56.507Z,3.13
2024-02-05T00:51:24.761Z,5.60
2024-02-05T00:53:51.603Z,3.85
2024-02-05T00:56:18.925Z,3.95
2024-02-05T00:58:46.659Z,2.78
2024-02-05T01:01:13.540Z,4.88
2024-02-05T01:03:40.553Z,2.92
2024-02-05T01:06:09.925Z,6.05
2024-02-05T01:08:39.526Z,4.07
2024-02-05T01:11:07.324Z,2.75
2024-02-05T01:13:35.395Z,4.05
2024-02-05T01:16:05.835Z,2.97
2024-02-05T01:18:33.365Z,4.05
2024-02-05T01:21:01.363Z,2.83
2024-02-05T01:23:28.388Z,3.35
2024-02-05T01:25:55.386Z,3.05
2024-02-05T01:28:23.600Z,3.83
2024-02-05T01:30:53.102Z,4.05
2024-02-05T01:33:20.672Z,3.15
2024-02-05T01:35:48.559Z,3.58
2024-02-05T01:38:15.295Z,3.35
2024-02-05T01:40:42.332Z,3.17
2024-02-05T01:43:12.180Z,3.40
2024-02-05T01:45:39.029Z,3.17
2024-02-05T01:48:07.161Z,4.13
2024-02-05T01:50:34.201Z,3.42
2024-02-05T01:53:02.471Z,3.80
2024-02-05T01:55:32.618Z,3.08
2024-02-05T01:58:02.111Z,3.03
2024-02-05T02:00:35.488Z,5.75
2024-02-05T02:03:03.058Z,3.10
2024-02-05T02:05:30.903Z,5.45
2024-02-05T02:07:57.922Z,6.25
2024-02-05T02:10:25.017Z,3.38
2024-02-05T02:12:52.250Z,4.40
2024-02-05T02:15:19.651Z,5.03
2024-02-05T02:17:52.027Z,2.58
2024-02-05T02:20:25.879Z,3.10
2024-02-05T02:22:58.329Z,2.35
2024-02-05T02:25:26.684Z,2.83
2024-02-05T02:27:54.644Z,2.22
2024-02-05T02:30:23.874Z,7.35
2024-02-05T02:33:06.569Z,4.40
2024-02-05T02:35:41.188Z,3.55
2024-02-05T02:38:46.087Z,4.20
2024-02-05T02:41:37.320Z,3.90
2024-02-05T02:44:09.837Z,4.88
2024-02-05T02:46:36.706Z,4.00
2024-02-05T02:49:05.950Z,5.95
2024-02-05T02:51:33.751Z,2.92
2024-02-05T02:54:01.701Z,4.63
2024-02-05T02:56:28.503Z,5.45
2024-02-05T02:58:55.293Z,5.28
2024-02-05T03:01:24.040Z,4.03
2024-02-05T03:03:51.479Z,4.57
2024-02-05T03:06:18.343Z,2.83
2024-02-05T03:08:45.154Z,3.15
2024-02-05T03:11:12.062Z,9.18
2024-02-05T03:13:38.900Z,4.38
2024-02-05T03:16:07.155Z,3.05
2024-02-05T03:18:34.281Z,4.45
2024-02-05T03:21:01.225Z,3.70
2024-02-05T03:23:28.070Z,4.05
2024-02-05T03:25:55.064Z,3.05
2024-02-05T03:28:28.039Z,2.55
2024-02-05T03:30:55.132Z,0.80
2024-02-05T03:33:22.139Z,0.73
2024-02-05T03:35:52.240Z,1.88
2024-02-05T03:38:19.613Z,0.63
2024-02-05T03:40:46.776Z,1.77
2024-02-05T03:43:13.820Z,0.47
2024-02-05T03:45:41.643Z,0.60
2024-02-05T03:48:09.107Z,0.65
2024-02-05T03:50:36.677Z,1.02
2024-02-05T03:53:03.892Z,1.95
2024-02-05T03:55:32.449Z,0.85
2024-02-05T03:58:05.506Z,0.73
2024-02-05T04:00:32.602Z,0.60
2024-02-05T04:03:04.731Z,0.95
2024-02-05T04:05:33.121Z,1.92
2024-02-05T04:08:00.464Z,1.27
2024-02-05T04:10:30.859Z,0.90
2024-02-05T04:12:58.047Z,0.82
2024-02-05T04:15:25.006Z,1.15
2024-02-05T04:17:52.134Z,0.93
2024-02-05T04:20:19.259Z,0.95
2024-02-05T04:22:46.078Z,1.55
2024-02-05T04:25:13.511Z,0.80
2024-02-05T04:27:40.555Z,0.98
2024-02-05T04:30:08.525Z,0.80
2024-02-05T04:32:35.631Z,1.92
2024-02-05T04:35:03.357Z,1.55
2024-02-05T04:37:32.115Z,1.00
2024-02-05T04:39:59.113Z,1.10
2024-02-05T04:42:26.128Z,2.47
2024-02-05T04:44:53.037Z,1.13
2024-02-05T04:47:22.439Z,1.33
2024-02-05T04:49:50.981Z,1.35
2024-02-05T04:52:19.632Z,2.05
2024-02-05T04:54:46.529Z,1.63
2024-02-05T04:57:13.957Z,3.22
2024-02-05T04:59:41.456Z,2.65
2024-02-05T05:02:08.527Z,1.80
2024-02-05T05:04:36.122Z,1.58
2024-02-05T05:07:03.050Z,2.10
2024-02-05T05:09:30.164Z,1.50
2024-02-05T05:11:57.030Z,1.52
2024-02-05T05:14:24.131Z,2.15
2024-02-05T05:16:51.042Z,2.05
2024-02-05T05:19:19.034Z,3.63
2024-02-05T05:21:47.185Z,6.22
2024-02-05T05:24:14.177Z,2.38
2024-02-05T05:26:45.995Z,3.42
2024-02-05T05:29:12.838Z,2.47
2024-02-05T05:31:39.982Z,1.88
2024-02-05T05:34:08.459Z,2.40
2024-02-05T05:36:35.780Z,1.58
2024-02-05T05:39:03.564Z,1.90
2024-02-05T05:41:30.479Z,2.13
2024-02-05T05:43:57.418Z,3.05
2024-02-05T05:46:24.362Z,3.10
2024-02-05T05:48:54.954Z,2.15
2024-02-05T05:51:23.220Z,2.33
2024-02-05T05:53:50.381Z,2.20
2024-02-05T05:56:17.683Z,3.00
2024-02-05T05:58:46.771Z,3.60
2024-02-05T06:01:14.111Z,2.45
2024-02-05T06:03:44.872Z,2.70
2024-02-05T06:06:13.371Z,5.38
2024-02-05T06:08:41.653Z,5.18
2024-02-05T06:11:17.331Z,3.05
2024-02-05T06:16:46.528Z,2.50
2024-02-05T06:19:20.161Z,1.90
2024-02-05T06:21:58.115Z,2.00
2024-02-05T06:24:31.111Z,1.83
2024-02-05T06:27:04.414Z,1.42
2024-02-05T06:29:37.813Z,2.88
2024-02-05T06:32:10.494Z,2.30
2024-02-05T06:34:52.840Z,3.60
2024-02-05T06:37:33.948Z,2.05
2024-02-05T06:40:01.923Z,3.30
2024-02-05T06:42:34.095Z,3.22
2024-02-05T06:48:28.886Z,2.63
2024-02-05T07:11:06.756Z,2.42
2024-02-05T07:13:40.667Z,2.10
2024-02-05T07:16:16.345Z,2.55
2024-02-05T07:36:33.963Z,2.63
2024-02-05T07:49:38.561Z,3.03
2024-02-05T07:52:06.072Z,4.32
2024-02-05T07:57:49.421Z,3.53
2024-02-05T08:00:52.006Z,3.60
2024-02-05T08:04:17.112Z,4.70
2024-02-05T08:16:47.998Z,6.97
2024-02-05T08:20:16.778Z,9.93
2024-02-05T08:22:48.021Z,8.48
2024-02-05T08:28:48.884Z,7.63
2024-02-05T08:31:27.965Z,8.25
2024-02-05T08:34:19.094Z,7.97
2024-02-05T08:36:47.671Z,8.95
2024-02-05T08:39:16.545Z,7.78
2024-02-05T08:41:43.809Z,10.68
2024-02-05T08:44:10.719Z,6.22
2024-02-05T08:46:39.237Z,9.45
2024-02-05T08:49:09.322Z,6.47
2024-02-05T08:51:40.385Z,5.68
2024-02-05T08:54:09.771Z,5.60
2024-02-05T08:56:39.769Z,6.32
2024-02-05T08:59:10.519Z,6.78
2024-02-05T09:01:38.247Z,5.65
2024-02-05T09:04:05.683Z,6.28
2024-02-05T09:06:33.248Z,6.78
2024-02-05T09:09:09.773Z,5.30
2024-02-05T09:11:42.674Z,4.70
2024-02-05T09:14:28.986Z,7.32
2024-02-05T09:16:57.442Z,5.40
2024-02-05T09:19:34.214Z,5.07
2024-02-05T09:22:01.809Z,6.38
2024-02-05T09:24:32.100Z,5.93
2024-02-05T09:27:06.795Z,5.38
2024-02-05T09:32:52.306Z,6.55
2024-02-05T09:35:19.379Z,8.30
2024-02-05T09:37:46.629Z,10.80
2024-02-05T09:40:13.715Z,7.65
2024-02-05T09:42:41.519Z,12.77
2024-02-05T09:45:18.881Z,5.70
2024-02-05T09:47:47.545Z,4.55
2024-02-05T09:50:16.040Z,7.22
2024-02-05T09:52:53.501Z,4.13
2024-02-05T09:55:22.364Z,4.63
2024-02-05T09:57:50.597Z,5.70
2024-02-05T10:00:27.067Z,5.15
2024-02-05T10:03:01.116Z,8.48
2024-02-05T10:05:35.852Z,8.83
2024-02-05T10:08:08.772Z,6.65
2024-02-05T10:10:53.009Z,5.57
2024-02-05T10:13:24.002Z,14.20
2024-02-05T10:15:51.114Z,9.05
2024-02-05T10:18:21.211Z,6.18
2024-02-05T10:20:53.709Z,7.80
2024-02-05T10:23:27.997Z,7.65
2024-02-05T10:26:03.759Z,4.88
2024-02-05T10:28:34.706Z,5.03
2024-02-05T10:31:28.205Z,5.13
2024-02-05T10:33:55.886Z,3.05
2024-02-05T10:36:24.199Z,4.47
2024-02-05T10:38:50.979Z,4.90
2024-02-05T10:41:21.267Z,5.00
2024-02-05T10:43:51.254Z,6.10
2024-02-05T10:46:25.419Z,4.70
2024-02-05T10:48:52.686Z,3.03
2024-02-05T10:51:22.823Z,2.88
2024-02-05T10:53:53.393Z,2.40
2024-02-05T10:56:23.611Z,3.28
2024-02-05T10:58:55.789Z,3.50
2024-02-05T11:01:48.019Z,4.85
2024-02-05T11:04:19.097Z,3.47
2024-02-05T11:06:52.244Z,3.58
2024-02-05T11:09:20.569Z,3.83
2024-02-05T11:11:48.455Z,2.60
2024-02-05T11:14:19.359Z,3.28
2024-02-05T11:16:47.451Z,4.63
2024-02-05T11:19:21.078Z,4.55
2024-02-05T11:21:56.930Z,2.80
2024-02-05T11:24:36.978Z,3.03
2024-02-05T11:27:17.153Z,3.45
2024-02-05T11:29:56.543Z,5.90
2024-02-05T11:32:36.091Z,5.15
2024-02-05T11:35:04.230Z,5.13
2024-02-05T11:37:41.911Z,5.47
2024-02-05T11:40:19.212Z,4.90
2024-02-05T11:43:09.317Z,5.40
2024-02-05T11:45:38.443Z,3.55
2024-02-05T11:48:08.783Z,3.83
2024-02-05T11:50:41.960Z,4.03
2024-02-05T11:53:09.262Z,2.88
2024-02-05T11:55:45.501Z,2.90
2024-02-05T11:58:21.814Z,2.90
2024-02-05T12:00:56.007Z,2.40
2024-02-05T12:03:27.569Z,2.55
2024-02-05T12:05:55.301Z,2.80
2024-02-05T12:08:27.304Z,4.10
2024-02-05T12:10:54.253Z,2.80
2024-02-05T12:13:26.363Z,2.70
2024-02-05T12:15:53.725Z,5.07
2024-02-05T12:18:20.943Z,1.92
2024-02-05T12:20:58.073Z,1.58
2024-02-05T12:23:27.329Z,2.75
2024-02-05T12:25:55.576Z,2.22
2024-02-05T12:28:30.067Z,1.88
2024-02-05T12:30:59.995Z,1.20
2024-02-05T12:33:30.946Z,1.13
2024-02-05T12:36:09.243Z,2.08
2024-02-05T12:38:36.440Z,1.58
2024-02-05T12:41:06.436Z,6.57
2024-02-05T12:43:34.453Z,4.35
2024-02-05T12:46:04.290Z,1.17
2024-02-05T12:48:40.097Z,2.10
2024-02-05T12:51:09.263Z,2.85
2024-02-05T12:53:38.720Z,1.73
2024-02-05T12:56:09.617Z,1.60
2024-02-05T12:58:42.681Z,2.00
2024-02-05T13:01:11.458Z,3.17
2024-02-05T13:04:15.989Z,9.27
2024-02-05T13:07:08.404Z,1.88
2024-02-05T13:09:45.734Z,3.10
2024-02-05T13:12:16.073Z,1.65
2024-02-05T13:14:54.282Z,1.83
2024-02-05T13:17:24.022Z,2.08
2024-02-05T13:19:59.809Z,1.23
2024-02-05T13:22:31.064Z,2.25
2024-02-05T13:24:58.680Z,2.88
2024-02-05T13:31:30.875Z,2.58
2024-02-05T13:37:29.704Z,2.92
2024-02-05T13:43:10.479Z,3.05
2024-02-05T13:45:44.479Z,1.85
2024-02-05T13:48:38.623Z,1.58
2024-02-05T13:51:13.041Z,1.60
2024-02-05T13:53:40.756Z,3.83
2024-02-05T13:56:08.316Z,2.63
2024-02-05T13:59:22.973Z,1.98
2024-02-05T14:01:59.676Z,2.80
2024-02-05T14:04:33.722Z,1.58
2024-02-05T14:07:33.480Z,2.72
2024-02-05T14:10:01.356Z,2.80
2024-02-05T14:12:39.095Z,2.85
2024-02-05T14:15:19.909Z,1.88
2024-02-05T14:18:18.387Z,2.40
2024-02-05T14:21:20.256Z,1.27
2024-02-05T14:39:51.869Z,1.70
2024-02-05T14:42:22.721Z,5.30
2024-02-05T14:44:50.880Z,3.20
2024-02-05T14:47:24.957Z,3.55
2024-02-05T14:50:10.725Z,3.30
2024-02-05T14:52:42.024Z,3.25
2024-02-05T14:55:10.334Z,3.15
2024-02-05T14:57:45.627Z,2.33
2024-02-05T15:00:16.112Z,2.75
2024-02-05T15:02:43.326Z,1.50
2024-02-05T15:05:13.984Z,1.58
2024-02-05T15:07:41.395Z,2.75
2024-02-05T15:10:09.295Z,2.10
2024-02-05T15:12:36.069Z,2.53
2024-02-05T15:15:03.603Z,1.50
2024-02-05T15:17:30.661Z,1.52
2024-02-05T15:19:57.877Z,2.75
2024-02-05T15:22:25.347Z,1.50
2024-02-05T15:24:55.510Z,1.50
2024-02-05T15:27:22.726Z,6.32
2024-02-05T15:29:49.814Z,2.60
2024-02-05T15:32:17.575Z,1.33
2024-02-05T15:34:53.013Z,1.63
2024-02-05T15:37:21.791Z,2.05
2024-02-05T15:39:50.732Z,1.70
2024-02-05T15:42:19.587Z,2.00
2024-02-05T15:44:47.353Z,1.48
2024-02-05T15:47:14.452Z,1.00
2024-02-05T15:49:46.125Z,1.65
2024-02-05T15:52:16.648Z,4.30
2024-02-05T15:54:43.581Z,1.75
2024-02-05T15:57:10.494Z,2.25
2024-02-05T15:59:40.055Z,1.75
2024-02-05T16:02:14.950Z,1.88
2024-02-05T16:04:42.008Z,7.72
2024-02-05T16:07:11.210Z,4.22
2024-02-05T16:09:39.969Z,4.13
2024-02-05T16:12:08.650Z,3.28
2024-02-05T16:14:41.472Z,3.25
2024-02-05T16:17:08.361Z,2.90
2024-02-05T16:19:35.166Z,3.55
2024-02-05T16:22:02.491Z,4.43
2024-02-05T16:24:29.438Z,4.50
2024-02-05T16:26:57.676Z,5.43
2024-02-05T16:29:24.566Z,3.20
2024-02-05T16:31:51.528Z,3.42
2024-02-05T16:34:20.642Z,6.82
2024-02-05T16:36:48.337Z,4.97
2024-02-05T16:39:16.041Z,3.50
2024-02-05T16:41:43.458Z,2.00
2024-02-05T16:44:11.593Z,3.72
2024-02-05T16:46:38.801Z,3.35
2024-02-05T16:49:06.626Z,2.33
2024-02-05T16:51:33.815Z,3.10
2024-02-05T16:54:04.063Z,1.80
2024-02-05T16:56:31.750Z,3.65
2024-02-05T16:58:58.712Z,2.38
2024-02-05T17:01:26.650Z,2.38
2024-02-05T17:03:53.791Z,2.28
2024-02-05T17:06:29.034Z,1.85
2024-02-05T17:09:52.836Z,1.77
2024-02-05T17:13:45.883Z,2.92
2024-02-05T17:16:35.549Z,2.67
2024-02-05T17:19:49.692Z,1.83
2024-02-05T17:22:56.366Z,2.50
2024-02-05T17:29:42.346Z,3.55
2024-02-05T17:32:49.311Z,3.03
2024-02-05T17:39:43.851Z,5.38
2024-02-05T17:43:20.513Z,5.13
2024-02-05T17:45:53.581Z,2.80
2024-02-05T17:48:28.284Z,6.07
2024-02-05T17:50:59.089Z,4.30
2024-02-05T17:54:03.967Z,5.75
2024-02-05T17:56:34.251Z,4.13
2024-02-05T17:59:01.337Z,1.75
2024-02-05T18:02:12.929Z,2.40
2024-02-05T18:04:51.253Z,3.75
2024-02-05T18:07:25.287Z,6.30
2024-02-05T18:10:37.146Z,6.13
2024-02-05T18:20:34.591Z,2.13
2024-02-05T18:24:00.024Z,1.75
2024-02-05T18:27:05.569Z,3.33
2024-02-05T18:29:38.803Z,1.70
2024-02-05T18:38:23.443Z,1.50
2024-02-05T18:41:12.740Z,2.92
2024-02-05T18:44:20.998Z,3.05
2024-02-05T19:14:30.795Z,1.95
2024-02-05T19:17:21.495Z,2.20
2024-02-05T19:24:21.461Z,1.90
2024-02-05T19:27:37.428Z,1.70
2024-02-05T19:34:42.809Z,1.90
2024-02-05T19:37:12.336Z,1.65
2024-02-05T19:39:43.156Z,2.25
2024-02-05T19:47:03.236Z,2.55
2024-02-05T19:50:12.244Z,0.93
2024-02-05T19:53:14.529Z,1.55
2024-02-05T19:56:18.311Z,1.90
2024-02-05T19:58:57.575Z,3.10
2024-02-05T20:01:27.037Z,1.20
2024-02-05T20:04:04.363Z,2.78
2024-02-05T20:06:39.529Z,2.88
2024-02-05T20:13:11.930Z,2.45
2024-02-05T20:16:10.056Z,1.30
2024-02-05T20:18:45.865Z,2.85
2024-02-05T20:21:19.821Z,1.08
2024-02-05T20:24:00.180Z,0.90
2024-02-05T20:26:27.692Z,1.70
2024-02-05T20:28:58.606Z,1.27
2024-02-05T20:31:39.727Z,3.42
2024-02-05T20:34:08.521Z,1.00
2024-02-05T20:36:41.030Z,1.42
2024-02-05T20:42:15.442Z,2.72
2024-02-05T20:45:05.692Z,1.95
2024-02-05T20:48:18.665Z,6.60
2024-02-05T20:50:51.660Z,1.15
2024-02-05T20:53:25.798Z,3.00
2024-02-05T20:55:58.277Z,2.05
2024-02-05T20:58:29.459Z,3.25
2024-02-05T21:00:57.966Z,1.65
2024-02-05T21:03:46.160Z,2.78
2024-02-05T21:06:17.060Z,2.30
2024-02-05T21:08:46.651Z,2.20
2024-02-05T21:11:17.851Z,3.45
2024-02-05T21:16:48.187Z,1.98
2024-02-05T21:19:18.940Z,2.45
2024-02-05T21:21:52.108Z,2.50
2024-02-05T21:24:25.619Z,3.25
2024-02-05T21:26:53.097Z,4.38
2024-02-05T21:29:31.019Z,2.63
2024-02-05T21:32:01.111Z,3.15
2024-02-05T21:35:08.621Z,2.60
2024-02-05T21:37:43.371Z,2.80
2024-02-05T21:40:14.408Z,3.42
2024-02-05T21:42:51.297Z,2.80
2024-02-05T21:45:24.143Z,4.10
2024-02-05T21:48:01.103Z,2.85
2024-02-05T21:50:37.122Z,1.95
2024-02-05T21:53:09.279Z,4.65
2024-02-05T21:55:59.977Z,3.60
2024-02-05T21:58:35.494Z,3.35
2024-02-05T22:01:04.747Z,1.65
2024-02-05T22:03:43.508Z,1.98
2024-02-05T22:06:29.732Z,5.88
2024-02-05T22:09:01.371Z,3.40
2024-02-05T22:11:29.177Z,3.33
2024-02-05T22:13:56.705Z,1.40
2024-02-05T22:16:26.198Z,1.70
2024-02-05T22:19:00.365Z,3.55
2024-02-05T22:21:32.658Z,2.05
2024-02-05T22:24:01.435Z,2.63
2024-02-05T22:26:28.554Z,2.75
2024-02-05T22:28:55.860Z,2.10
2024-02-05T22:31:23.320Z,4.43
2024-02-05T22:33:51.095Z,3.75
2024-02-05T22:36:19.295Z,4.25
2024-02-05T22:38:47.342Z,4.43
2024-02-05T22:41:17.963Z,3.65
2024-02-05T22:43:45.287Z,4.30
2024-02-05T22:46:20.269Z,1.80
2024-02-05T22:49:15.282Z,2.50
2024-02-05T22:51:44.549Z,3.22
2024-02-05T22:54:11.875Z,3.05
2024-02-05T22:56:40.665Z,1.83
2024-02-05T22:59:09.874Z,2.38
2024-02-05T23:01:37.205Z,3.78
2024-02-05T23:04:04.422Z,2.53
2024-02-05T23:06:36.524Z,2.83
2024-02-05T23:09:03.788Z,3.65
2024-02-05T23:11:30.994Z,2.42
2024-02-05T23:14:05.828Z,2.88
2024-02-05T23:16:33.329Z,2.47
2024-02-05T23:19:02.055Z,5.85
2024-02-05T23:21:29.058Z,2.22
2024-02-05T23:23:56.079Z,2.80
2024-02-05T23:26:24.119Z,1.95
2024-02-05T23:28:51.402Z,1.70
2024-02-05T23:31:22.119Z,3.83
2024-02-05T23:33:52.107Z,3.75
2024-02-05T23:36:19.276Z,4.43
2024-02-05T23:38:46.818Z,4.22
2024-02-05T23:41:13.916Z,3.88
2024-02-05T23:43:41.051Z,3.92
2024-02-05T23:46:08.707Z,3.95
2024-02-05T23:48:35.837Z,1.85
2024-02-05T23:51:03.047Z,2.33
2024-02-05T23:53:30.206Z,4.25
2024-02-05T23:56:00.991Z,2.83
2024-02-05T23:58:32.588Z,2.92
